Carlisle, Pennsylvania
Current Conditions -  °F | °C
As of 12:56 AM on Thursday 27 Nov 2014 (Local Time) from KCXY Reporting Station
Overcast Overcast  
Wind Chill: 28°   Ceiling: 7000
Heat Index: 35°   Visibility: 10mi
Dew Point: 30°   Wind: 9mph
Humidity: 82%   Direction: 300°WNW
Pressure: 29.98"   Gusts: NA
Location:  40.2°N, 77.19°W
Report Text: KCXY 270556Z AUTO 30008KT 10SM OVC070 02/M01 A2998 RMK AO2 SLP155 60005 T00171011 10022 20017 53002
Loading
Personal Weather Stations






























Interactive Weather Map New forecast layout! Learn more

10-Day Weather Forecast

Advertisements
Track Severe Weather on mobile